createdAt,value
2023-01-10T09:01:48.076Z,99143.00
2023-01-10T09:04:15.619Z,99133.00
2023-01-10T09:06:43.234Z,99142.00
2023-01-10T09:09:10.675Z,99148.00
2023-01-10T09:11:38.319Z,99151.00
2023-01-10T09:14:07.502Z,99161.00
2023-01-10T09:16:34.973Z,99158.00
2023-01-10T09:19:02.376Z,99143.00
2023-01-10T09:21:29.728Z,99149.00
2023-01-10T09:23:57.146Z,99159.00
2023-01-10T09:26:24.526Z,99171.00
2023-01-10T09:28:51.876Z,99166.00
2023-01-10T09:31:19.282Z,99180.00
2023-01-10T09:33:48.871Z,99180.00
2023-01-10T09:36:16.516Z,99175.00
2023-01-10T09:38:44.698Z,99187.00
2023-01-10T09:41:46.019Z,99173.00
2023-01-10T09:45:19.439Z,99159.00
2023-01-10T09:48:43.062Z,99164.00
2023-01-10T09:51:41.373Z,99160.00
2023-01-10T09:54:31.651Z,99163.00
2023-01-10T09:57:02.018Z,99166.00
2023-01-10T09:59:41.891Z,99187.00
2023-01-10T10:02:39.495Z,99156.00
2023-01-10T10:05:25.655Z,99161.00
2023-01-10T10:08:02.419Z,99167.00
2023-01-10T10:10:51.848Z,99158.00
2023-01-10T10:13:44.300Z,99156.00
2023-01-10T10:17:36.717Z,99143.00
2023-01-10T10:20:57.979Z,99144.00
2023-01-10T10:24:06.826Z,99165.00
2023-01-10T10:27:25.599Z,99150.00
2023-01-10T10:32:03.458Z,99160.00
2023-01-10T10:34:50.907Z,99168.00
2023-01-10T10:37:48.660Z,99173.00
2023-01-10T10:40:28.423Z,99169.00
2023-01-10T10:43:00.070Z,99165.00
2023-01-10T10:46:13.066Z,99167.00
2023-01-10T10:48:54.143Z,99173.00
2023-01-10T10:51:42.403Z,99162.00
2023-01-10T10:54:14.484Z,99152.00
2023-01-10T10:56:43.145Z,99168.00
2023-01-10T10:59:19.685Z,99153.00
2023-01-10T11:01:49.879Z,99160.00
2023-01-10T11:04:23.578Z,99164.00
2023-01-10T11:06:51.867Z,99161.00
2023-01-10T11:09:37.216Z,99169.00
2023-01-10T11:12:06.060Z,99160.00
2023-01-10T11:14:51.659Z,99164.00
2023-01-10T11:17:28.545Z,99159.00
2023-01-10T11:20:17.173Z,99173.00
2023-01-10T11:22:53.257Z,99165.00
2023-01-10T11:25:23.178Z,99164.00
2023-01-10T11:27:58.941Z,99162.00
2023-01-10T11:30:33.338Z,99145.00
2023-01-10T11:33:17.839Z,99131.00
2023-01-10T11:36:10.299Z,99150.00
2023-01-10T11:38:37.744Z,99155.00
2023-01-10T11:41:31.753Z,99151.00
2023-01-10T11:44:29.956Z,99143.00
2023-01-10T11:47:04.431Z,99140.00
2023-01-10T11:49:43.099Z,99136.00
2023-01-10T11:52:30.197Z,99133.00
2023-01-10T11:55:00.379Z,99130.00
2023-01-10T11:57:32.008Z,99120.00
2023-01-10T12:00:07.286Z,99098.00
2023-01-10T12:02:44.931Z,99132.00
2023-01-10T12:05:22.273Z,99124.00
2023-01-10T12:08:06.719Z,99103.00
2023-01-10T12:10:35.474Z,99131.00
2023-01-10T12:13:46.780Z,99089.00
2023-01-10T12:16:31.481Z,99093.00
2023-01-10T12:19:04.525Z,99076.00
2023-01-10T12:21:45.631Z,99073.00
2023-01-10T12:24:28.239Z,99075.00
2023-01-10T12:26:57.501Z,99101.00
2023-01-10T12:29:35.345Z,99087.00
2023-01-10T12:32:07.953Z,99081.00
2023-01-10T12:34:53.399Z,99082.00
2023-01-10T12:38:07.518Z,99078.00
2023-01-10T12:40:52.937Z,99078.00
2023-01-10T12:43:56.460Z,99074.00
2023-01-10T12:47:10.088Z,99066.00
2023-01-10T12:50:25.510Z,99066.00
2023-01-10T12:53:35.546Z,99066.00
2023-01-10T12:56:12.236Z,99035.00
2023-01-10T12:59:03.948Z,99038.00
2023-01-10T13:01:40.656Z,99039.00
2023-01-10T13:04:15.645Z,99033.00
2023-01-10T13:06:44.583Z,99038.00
2023-01-10T13:09:25.775Z,99036.00
2023-01-10T13:12:24.317Z,99023.00
2023-01-10T13:15:26.825Z,99020.00
2023-01-10T13:18:29.274Z,99022.00
2023-01-10T13:21:13.720Z,99025.00
2023-01-10T13:23:51.741Z,99019.00
2023-01-10T13:26:19.709Z,99021.00
2023-01-10T13:29:12.746Z,99021.00
2023-01-10T13:31:40.152Z,99014.00
2023-01-10T13:34:16.355Z,99008.00
2023-01-10T13:37:01.484Z,98996.00
2023-01-10T13:39:49.088Z,98991.00
2023-01-10T13:43:01.686Z,98994.00
2023-01-10T13:45:31.513Z,98983.00
2023-01-10T13:48:03.370Z,98992.00
2023-01-10T13:50:42.240Z,98982.00
2023-01-10T13:53:12.652Z,98973.00
2023-01-10T13:55:39.930Z,98979.00
2023-01-10T13:58:16.006Z,98973.00
2023-01-10T14:01:14.132Z,98976.00
2023-01-10T14:04:01.915Z,98991.00
2023-01-10T14:06:29.100Z,98971.00
2023-01-10T14:09:27.119Z,98989.00
2023-01-10T14:12:19.799Z,98989.00
2023-01-10T14:15:32.223Z,98992.00
2023-01-10T14:18:24.359Z,98992.00
2023-01-10T14:21:09.679Z,98993.00
2023-01-10T14:23:48.634Z,98989.00
2023-01-10T14:26:38.159Z,98992.00
2023-01-10T14:29:15.804Z,98985.00
2023-01-10T14:31:50.221Z,98989.00
2023-01-10T14:34:35.724Z,98980.00
2023-01-10T14:37:25.933Z,98980.00
2023-01-10T14:39:56.043Z,98970.00
2023-01-10T14:42:26.238Z,98975.00
2023-01-10T14:46:12.429Z,98973.00
2023-01-10T14:48:53.677Z,98971.00
2023-01-10T14:51:32.442Z,98966.00
2023-01-10T14:54:15.147Z,98961.00
2023-01-10T14:56:50.856Z,98968.00
2023-01-10T14:59:36.069Z,98965.00
2023-01-10T15:02:25.789Z,98960.00
2023-01-10T15:05:21.965Z,98957.00
2023-01-10T15:07:49.557Z,98949.00
2023-01-10T15:10:32.721Z,98945.00
2023-01-10T15:13:05.453Z,98954.00
2023-01-10T15:15:39.570Z,98944.00
2023-01-10T15:18:51.332Z,98957.00
2023-01-10T15:21:22.121Z,98959.00
2023-01-10T15:23:51.728Z,98959.00
2023-01-10T15:26:25.168Z,98958.00
2023-01-10T15:29:14.848Z,98953.00
2023-01-10T15:31:42.833Z,98948.00
2023-01-10T15:34:20.599Z,98939.00
2023-01-10T15:37:07.506Z,98943.00
2023-01-10T15:39:40.745Z,98939.00
2023-01-10T15:42:12.388Z,98941.00
2023-01-10T15:44:52.434Z,98942.00
2023-01-10T15:47:48.605Z,98926.00
2023-01-10T15:50:40.455Z,98917.00
2023-01-10T15:53:12.115Z,98929.00
2023-01-10T15:55:55.519Z,98933.00
2023-01-10T15:58:36.193Z,98933.00
2023-01-10T16:01:05.031Z,98929.00
2023-01-10T16:04:04.629Z,98930.00
2023-01-10T16:06:36.806Z,98935.00
2023-01-10T16:09:19.444Z,98930.00
2023-01-10T16:12:11.336Z,98924.00
2023-01-10T16:14:38.928Z,98918.00
2023-01-10T16:17:06.692Z,98919.00
2023-01-10T16:19:34.768Z,98922.00
2023-01-10T16:22:02.420Z,98924.00
2023-01-10T16:24:34.748Z,98917.00
2023-01-10T16:27:08.299Z,98923.00
2023-01-10T16:29:35.630Z,98926.00
2023-01-10T16:32:03.045Z,98935.00
2023-01-10T16:34:33.920Z,98933.00
2023-01-10T16:37:01.306Z,98939.00
2023-01-10T16:39:28.618Z,98940.00
2023-01-10T16:42:14.559Z,98933.00
2023-01-10T16:44:41.894Z,98924.00
2023-01-10T16:47:09.242Z,98930.00
2023-01-10T16:49:36.578Z,98940.00
2023-01-10T16:52:04.166Z,98924.00
2023-01-10T16:54:32.689Z,98920.00
2023-01-10T16:57:00.057Z,98929.00
2023-01-10T16:59:27.334Z,98925.00
2023-01-10T17:01:58.721Z,98921.00
2023-01-10T17:04:35.528Z,98919.00
2023-01-10T17:07:03.292Z,98917.00
2023-01-10T17:09:31.445Z,98910.00
2023-01-10T17:12:10.835Z,98925.00
2023-01-10T17:14:39.379Z,98913.00
2023-01-10T17:17:06.841Z,98906.00
2023-01-10T17:19:34.317Z,98914.00
2023-01-10T17:22:01.679Z,98907.00
2023-01-10T17:24:29.975Z,98915.00
2023-01-10T17:26:57.535Z,98911.00
2023-01-10T17:29:24.879Z,98915.00
2023-01-10T17:31:52.312Z,98918.00
2023-01-10T17:34:19.868Z,98909.00
2023-01-10T17:36:47.462Z,98895.00
2023-01-10T17:39:14.989Z,98892.00
2023-01-10T17:41:42.486Z,98886.00
2023-01-10T17:44:10.067Z,98885.00
2023-01-10T17:46:37.367Z,98886.00
2023-01-10T17:49:04.756Z,98881.00
2023-01-10T17:51:32.111Z,98878.00
2023-01-10T17:53:59.820Z,98868.00
2023-01-10T17:56:27.223Z,98869.00
2023-01-10T17:58:54.612Z,98883.00
2023-01-10T18:01:25.853Z,98878.00
2023-01-10T18:03:53.790Z,98882.00
2023-01-10T18:06:25.491Z,98872.00
2023-01-10T18:08:54.203Z,98873.00
2023-01-10T18:11:25.111Z,98883.00
2023-01-10T18:13:52.700Z,98880.00
2023-01-10T18:16:20.158Z,98878.00
2023-01-10T18:18:47.599Z,98875.00
2023-01-10T18:21:18.762Z,98871.00
2023-01-10T18:23:46.994Z,98854.00
2023-01-10T18:26:14.634Z,98849.00
2023-01-10T18:28:44.608Z,98846.00
2023-01-10T18:31:19.639Z,98849.00
2023-01-10T18:33:48.437Z,98852.00
2023-01-10T18:36:21.919Z,98853.00
2023-01-10T18:38:50.818Z,98849.00
2023-01-10T18:41:20.938Z,98843.00
2023-01-10T18:43:48.985Z,98861.00
2023-01-10T18:46:21.898Z,98871.00
2023-01-10T18:48:52.997Z,98874.00
2023-01-10T18:51:22.622Z,98871.00
2023-01-10T18:53:52.776Z,98867.00
2023-01-10T18:56:20.707Z,98877.00
2023-01-10T18:58:48.064Z,98868.00
2023-01-10T19:01:20.628Z,98871.00
2023-01-10T19:03:48.156Z,98868.00
2023-01-10T19:06:21.576Z,98858.00
2023-01-10T19:08:54.238Z,98850.00
2023-01-10T19:11:21.804Z,98854.00
2023-01-10T19:13:53.952Z,98842.00
2023-01-10T19:16:34.633Z,98840.00
2023-01-10T19:19:09.372Z,98852.00
2023-01-10T19:21:41.101Z,98855.00
2023-01-10T19:24:29.795Z,98848.00
2023-01-10T19:26:57.598Z,98856.00
2023-01-10T19:29:24.968Z,98856.00
2023-01-10T19:31:53.160Z,98850.00
2023-01-10T19:34:20.629Z,98857.00
2023-01-10T19:36:48.070Z,98850.00
2023-01-10T19:39:15.680Z,98857.00
2023-01-10T19:41:43.276Z,98847.00
2023-01-10T19:44:16.438Z,98844.00
2023-01-10T19:46:47.420Z,98836.00
2023-01-10T19:49:19.377Z,98840.00
2023-01-10T19:51:53.542Z,98832.00
2023-01-10T19:54:21.198Z,98837.00
2023-01-10T19:56:48.565Z,98828.00
2023-01-10T19:59:17.636Z,98826.00
2023-01-10T20:01:45.136Z,98812.00
2023-01-10T20:04:13.786Z,98824.00
2023-01-10T20:06:42.329Z,98822.00
2023-01-10T20:09:12.271Z,98821.00
2023-01-10T20:11:41.975Z,98792.00
2023-01-10T20:14:20.835Z,98808.00
2023-01-10T20:16:49.305Z,98801.00
2023-01-10T20:19:17.467Z,98809.00
2023-01-10T20:21:44.915Z,98806.00
2023-01-10T20:24:20.971Z,98813.00
2023-01-10T20:26:51.149Z,98800.00
2023-01-10T20:29:19.657Z,98804.00
2023-01-10T20:31:53.147Z,98786.00
2023-01-10T20:34:22.919Z,98804.00
2023-01-10T20:36:52.597Z,98802.00
2023-01-10T20:39:25.574Z,98801.00
2023-01-10T20:41:53.210Z,98799.00
2023-01-10T20:44:20.560Z,98800.00
2023-01-10T20:46:47.941Z,98795.00
2023-01-10T20:49:15.408Z,98792.00
2023-01-10T20:51:42.739Z,98795.00
2023-01-10T20:54:11.779Z,98806.00
